Time;durP1;ratioP1;P1;durP2;ratioP2;P2;SDS_P1;SDS_P2;PMS_P1;PMS_P2;Temp;Humidity;BMP_temperature;BMP_pressure;BME280_temperature;BME280_humidity;BME280_pressure;Samples;Min_cycle;Max_cycle;Signal;HPM_P1;HPM_P2
2021/12/04 00:02:11;;;;;;;7.55;1.50;;;21.90;56.40;;;;;;6227814;28;20049;-51
2021/12/04 00:05:12;;;;;;;5.95;1.50;;;21.90;56.50;;;;;;6199518;28;20986;-53
2021/12/04 00:08:15;;;;;;;7.30;1.92;;;21.90;56.50;;;;;;6228154;28;20049;-55
2021/12/04 00:11:17;;;;;;;6.35;1.58;;;21.90;56.60;;;;;;6231380;28;20044;-53
2021/12/04 00:14:19;;;;;;;5.70;1.58;;;21.90;56.60;;;;;;6213529;28;20115;-53
2021/12/04 00:17:21;;;;;;;5.35;1.85;;;21.80;56.60;;;;;;6232758;28;20041;-51
2021/12/04 00:20:24;;;;;;;5.68;1.70;;;21.70;56.60;;;;;;6232160;28;20060;-50
2021/12/04 00:23:26;;;;;;;5.50;2.15;;;21.80;56.80;;;;;;6217511;28;20044;-52
2021/12/04 00:26:27;;;;;;;6.88;2.05;;;21.90;56.80;;;;;;6235676;28;20167;-50
2021/12/04 00:29:29;;;;;;;7.15;2.00;;;21.70;56.80;;;;;;6230441;28;20071;-53
2021/12/04 00:32:32;;;;;;;6.65;2.00;;;21.90;56.90;;;;;;6226784;28;20120;-54
2021/12/04 00:35:41;;;;;;;5.07;1.92;;;21.70;56.80;;;;;;6222554;28;20052;-51
2021/12/04 00:51:43;;;;;;;8.65;2.15;;;21.80;57.20;;;;;;6234957;28;20040;-53
2021/12/04 00:54:46;;;;;;;5.20;1.70;;;21.80;57.20;;;;;;6229805;28;20071;-56
2021/12/04 00:57:47;;;;;;;6.65;2.15;;;21.80;57.30;;;;;;6243881;28;20048;-54
2021/12/04 01:00:49;;;;;;;5.15;1.55;;;21.70;57.20;;;;;;6246816;28;20072;-54
2021/12/04 01:03:51;;;;;;;4.40;1.60;;;21.70;57.30;;;;;;6244758;28;20124;-54
2021/12/04 01:06:52;;;;;;;4.72;1.30;;;21.70;57.30;;;;;;6237532;28;20068;-54
2021/12/04 01:09:55;;;;;;;5.88;1.80;;;21.80;57.40;;;;;;6235884;28;20570;-55
2021/12/04 01:13:00;;;;;;;4.50;1.25;;;21.90;57.40;;;;;;6239623;28;20183;-54
2021/12/04 01:16:02;;;;;;;5.55;1.40;;;21.80;57.40;;;;;;6239714;28;20112;-53
2021/12/04 01:19:04;;;;;;;3.35;1.10;;;21.90;57.50;;;;;;6207123;28;20051;-54
2021/12/04 01:22:06;;;;;;;4.63;1.10;;;21.70;57.40;;;;;;6238647;28;20040;-53
2021/12/04 01:25:09;;;;;;;3.28;1.20;;;21.90;57.50;;;;;;6240980;28;20807;-54
2021/12/04 01:28:11;;;;;;;3.38;1.45;;;21.70;57.40;;;;;;6229565;28;20087;-55
2021/12/04 01:31:12;;;;;;;3.80;1.35;;;21.70;57.40;;;;;;6222120;28;20577;-54
2021/12/04 01:34:15;;;;;;;3.25;1.10;;;21.70;57.40;;;;;;6247424;28;20052;-54
2021/12/04 01:37:16;;;;;;;3.78;0.95;;;21.80;57.50;;;;;;6230787;28;20139;-48
2021/12/04 01:40:18;;;;;;;;;;;21.90;57.50;;;;;;6244593;28;20048;-51
2021/12/04 01:43:20;;;;;;;1.40;0.77;;;21.80;57.40;;;;;;6242434;28;19971;-54
2021/12/04 01:46:21;;;;;;;2.92;0.80;;;21.70;57.30;;;;;;6237140;28;20048;-54
2021/12/04 01:49:24;;;;;;;3.55;0.75;;;21.80;57.30;;;;;;6241359;28;20044;-55
2021/12/04 01:52:25;;;;;;;1.85;0.85;;;21.80;57.50;;;;;;6213162;28;20081;-54
2021/12/04 01:55:33;;;;;;;2.38;0.70;;;21.80;57.40;;;;;;6244247;28;20033;-52
2021/12/04 01:58:36;;;;;;;2.53;0.98;;;21.90;57.50;;;;;;6228610;28;20059;-52
2021/12/04 02:01:38;;;;;;;1.88;0.80;;;21.70;57.40;;;;;;6230595;28;21009;-53
2021/12/04 02:04:40;;;;;;;1.35;0.60;;;21.80;57.40;;;;;;6240561;28;20047;-54
2021/12/04 02:07:42;;;;;;;2.17;0.60;;;21.80;57.40;;;;;;6239567;28;20044;-53
2021/12/04 02:10:45;;;;;;;2.05;0.90;;;21.80;57.30;;;;;;6241182;28;20149;-54
2021/12/04 02:13:47;;;;;;;0.68;0.40;;;21.80;57.30;;;;;;6207125;28;20051;-54
2021/12/04 02:16:49;;;;;;;;;;;21.70;57.20;;;;;;6235477;28;20047;-50
2021/12/04 02:19:51;;;;;;;1.00;0.40;;;21.70;57.20;;;;;;6224255;28;20166;-51
2021/12/04 02:22:53;;;;;;;1.38;0.38;;;22.00;57.20;;;;;;6227864;28;20041;-48
2021/12/04 02:25:55;;;;;;;0.88;0.30;;;21.60;57.10;;;;;;6229656;28;20350;-50
2021/12/04 02:28:57;;;;;;;;;;;21.80;57.20;;;;;;6240097;28;20068;-49
2021/12/04 02:31:59;;;;;;;1.00;0.30;;;21.60;57.10;;;;;;6241014;28;19932;-51
2021/12/04 02:35:01;;;;;;;1.20;0.30;;;21.90;57.20;;;;;;6235292;28;20051;-49
2021/12/04 02:38:03;;;;;;;0.60;0.20;;;21.80;57.20;;;;;;6233040;28;20500;-50
2021/12/04 02:41:05;;;;;;;0.60;0.30;;;21.60;57.10;;;;;;6237051;28;20502;-55
2021/12/04 02:44:06;;;;;;;;;;;21.80;57.20;;;;;;6239215;28;20623;-50
2021/12/04 02:47:08;;;;;;;;;;;22.00;57.40;;;;;;6238179;28;20693;-53
2021/12/04 02:50:11;;;;;;;;;;;21.60;57.10;;;;;;6239259;28;20126;-52
2021/12/04 02:53:14;;;;;;;;;;;21.50;57.00;;;;;;6216859;28;19925;-51
2021/12/04 02:56:15;;;;;;;;;;;21.90;57.20;;;;;;6216682;28;20129;-52
2021/12/04 02:59:17;;;;;;;;;;;21.90;57.20;;;;;;6236037;28;19931;-50
2021/12/04 03:02:20;;;;;;;;;;;21.70;57.00;;;;;;6230665;28;20324;-49
2021/12/04 03:05:24;;;;;;;;;;;21.70;57.00;;;;;;6208688;28;19928;-51
2021/12/04 03:08:26;;;;;;;;;;;21.70;56.90;;;;;;6228192;28;20334;-51
2021/12/04 03:11:27;;;;;;;;;;;22.00;57.10;;;;;;6227071;28;20046;-48
2021/12/04 03:14:29;;;;;;;;;;;21.80;56.90;;;;;;6232172;28;19930;-52
2021/12/04 03:17:30;;;;;;;;;;;21.70;56.80;;;;;;6226601;28;20111;-49
2021/12/04 03:20:32;;;;;;;;;;;21.70;56.70;;;;;;6227949;28;19928;-50
2021/12/04 03:23:41;;;;;;;;;;;21.70;57.30;;;;;;6231548;28;20039;-51
2021/12/04 03:26:42;;;;;;;;;;;21.70;56.60;;;;;;6230236;28;20123;-48
2021/12/04 03:29:48;;;;;;;;;;;21.90;56.70;;;;;;6230675;28;20296;-52
2021/12/04 03:42:36;;;;;;;;;;;21.70;56.30;;;;;;6237790;28;20349;-51
2021/12/04 03:45:39;;;;;;;;;;;21.80;56.30;;;;;;6233572;28;19924;-50
2021/12/04 03:51:56;;;;;;;;;;;21.80;56.30;;;;;;6199848;28;20007;-48
2021/12/04 03:54:58;;;;;;;;;;;21.80;56.20;;;;;;6230930;28;19937;-50
2021/12/04 03:58:00;;;;;;;;;;;21.50;56.00;;;;;;6229618;28;20228;-48
2021/12/04 04:01:01;;;;;;;;;;;21.80;56.20;;;;;;6225819;28;19928;-48
2021/12/04 04:04:03;;;;;;;;;;;21.90;56.20;;;;;;6225374;28;20210;-52
2021/12/04 04:07:05;;;;;;;;;;;21.80;56.10;;;;;;6228230;28;20047;-53
2021/12/04 04:10:08;;;;;;;;;;;22.00;56.10;;;;;;6225380;28;19928;-53
2021/12/04 04:13:11;;;;;;;;;;;21.80;56.10;;;;;;6232250;28;22337;-55
2021/12/04 04:16:13;;;;;;;;;;;21.80;56.00;;;;;;6238580;28;20853;-56
2021/12/04 04:19:15;;;;;;;;;;;22.00;56.10;;;;;;6239005;28;20655;-51
2021/12/04 04:22:16;;;;;;;;;;;21.70;55.90;;;;;;6215018;28;19935;-51
2021/12/04 04:25:18;;;;;;;;;;;22.00;56.00;;;;;;6223656;28;19928;-51
2021/12/04 04:28:20;;;;;;;;;;;21.60;55.80;;;;;;6235644;28;20553;-48
2021/12/04 04:31:22;;;;;;;;;;;21.60;55.70;;;;;;6238112;28;20418;-53
2021/12/04 04:34:26;;;;;;;;;;;21.80;55.80;;;;;;6234032;28;19924;-51
2021/12/04 04:37:33;;;;;;;;;;;21.80;55.80;;;;;;6230362;28;20019;-51
2021/12/04 05:13:14;;;;;;;;;;;21.50;55.30;;;;;;6233378;28;19936;-50
2021/12/04 05:16:17;;;;;;;;;;;21.50;55.30;;;;;;6231075;28;20414;-50
2021/12/04 05:19:27;;;;;;;;;;;21.60;55.40;;;;;;6223678;28;19928;-50
2021/12/04 05:22:28;;;;;;;;;;;21.80;55.50;;;;;;6229701;28;20074;-52
2021/12/04 05:25:31;;;;;;;;;;;21.90;55.50;;;;;;6229965;28;20643;-49
2021/12/04 05:28:33;;;;;;;;;;;22.00;55.50;;;;;;6228434;28;20463;-52
2021/12/04 05:31:34;;;;;;;;;;;21.80;55.40;;;;;;6228783;28;20224;-53
2021/12/04 05:34:36;;;;;;;;;;;22.00;55.50;;;;;;6225474;28;19936;-50
2021/12/04 05:37:37;;;;;;;;;;;21.60;55.30;;;;;;6228098;28;20064;-50
2021/12/04 05:40:39;;;;;;;;;;;21.90;55.40;;;;;;6224113;28;19972;-48
2021/12/04 05:43:41;;;;;;;;;;;21.80;55.30;;;;;;6228984;28;20076;-49
2021/12/04 05:46:45;;;;;;;;;;;21.90;55.30;;;;;;6231412;28;20042;-50
2021/12/04 05:49:54;;;;;;;;;;;21.60;55.20;;;;;;6235967;28;19929;-52
2021/12/04 05:53:03;;;;;;;;;;;21.40;55.00;;;;;;6246861;28;21540;-53
2021/12/04 05:56:05;;;;;;;;;;;21.70;55.20;;;;;;6238458;28;20039;-51
2021/12/04 05:59:06;;;;;;;;;;;21.30;54.90;;;;;;6236584;28;20047;-55
2021/12/04 06:02:08;;;;;;;;;;;21.60;55.10;;;;;;6240768;28;20062;-54
2021/12/04 06:05:10;;;;;;;;;;;21.70;55.10;;;;;;6223940;28;20366;-54
2021/12/04 06:08:11;;;;;;;;;;;21.60;55.00;;;;;;6225678;28;20798;-53
2021/12/04 06:11:13;;;;;;;;;;;21.40;54.90;;;;;;6226430;28;20157;-52
2021/12/04 06:14:15;;;;;;;;;;;21.80;55.10;;;;;;6224161;28;21082;-51
2021/12/04 06:17:18;;;;;;;;;;;21.70;55.00;;;;;;6228104;28;20272;-52
2021/12/04 06:23:36;;;;;;;;;;;21.70;55.00;;;;;;6224511;28;20201;-53
2021/12/04 06:26:37;;;;;;;;;;;21.70;55.00;;;;;;6224206;28;20055;-52
2021/12/04 06:29:39;;;;;;;;;;;21.80;55.00;;;;;;6224063;28;20036;-53
2021/12/04 06:32:41;;;;;;;;;;;21.60;54.90;;;;;;6221691;28;20410;-49
2021/12/04 06:35:42;;;;;;;;;;;21.60;54.80;;;;;;6218157;28;19937;-52
2021/12/04 06:38:44;;;;;;;;;;;21.40;54.70;;;;;;6232008;28;20023;-50
2021/12/04 06:41:46;;;;;;;;;;;21.50;54.70;;;;;;6210005;28;20559;-53
2021/12/04 06:44:48;;;;;;;;;;;21.70;54.80;;;;;;6223326;28;20304;-51
2021/12/04 06:47:53;;;;;;;;;;;21.60;54.70;;;;;;6221247;28;20485;-50
2021/12/04 06:50:58;;;;;;;;;;;21.50;54.60;;;;;;6222193;28;19937;-47
2021/12/04 06:54:03;;;;;;;;;;;21.40;54.50;;;;;;6225706;28;20158;-50
2021/12/04 06:57:09;;;;;;;;;;;21.40;54.60;;;;;;6224322;28;20321;-53
2021/12/04 07:00:11;;;;;;;;;;;21.40;54.50;;;;;;6225358;28;20458;-53
2021/12/04 07:03:12;;;;;;;;;;;21.40;54.50;;;;;;6226085;28;20509;-53
2021/12/04 07:06:14;;;;;;;;;;;21.40;54.40;;;;;;6230037;28;19929;-54
2021/12/04 07:09:15;;;;;;;;;;;21.70;54.60;;;;;;6221047;28;20102;-53
2021/12/04 07:12:17;;;;;;;;;;;21.40;54.50;;;;;;6223693;28;20378;-51
2021/12/04 07:15:19;;;;;;;;;;;21.60;54.50;;;;;;6220287;28;20817;-48
2021/12/04 07:18:20;;;;;;;;;;;21.50;54.40;;;;;;6219726;28;20224;-52
2021/12/04 07:21:23;;;;;;;;;;;21.40;54.30;;;;;;6224165;28;20849;-51
2021/12/04 07:24:26;;;;;;;;;;;21.60;54.40;;;;;;6227716;28;20366;-49
2021/12/04 07:27:28;;;;;;;;;;;21.00;54.00;;;;;;6232331;28;19964;-55
2021/12/04 07:30:30;;;;;;;;;;;21.40;54.20;;;;;;6218439;28;20756;-51
2021/12/04 07:33:31;;;;;;;;;;;21.40;54.10;;;;;;6230531;28;19971;-55
2021/12/04 07:36:33;;;;;;;;;;;21.40;54.10;;;;;;6239609;28;19935;-55
2021/12/04 07:39:34;;;;;;;;;;;21.40;54.10;;;;;;6241417;28;19931;-54
2021/12/04 07:42:36;;;;;;;;;;;21.40;54.10;;;;;;6240449;28;20640;-55
2021/12/04 07:45:39;;;;;;;;;;;21.30;54.00;;;;;;6220934;28;20783;-55
2021/12/04 07:48:40;;;;;;;;;;;21.60;54.10;;;;;;6240826;28;19924;-54
2021/12/04 07:51:43;;;;;;;;;;;21.40;54.00;;;;;;6209496;28;20062;-55
2021/12/04 07:54:44;;;;;;;;;;;21.50;54.00;;;;;;6225508;28;19970;-53
2021/12/04 07:57:46;;;;;;;;;;;21.40;53.90;;;;;;6200172;28;20157;-56
2021/12/04 08:00:48;;;;;;;;;;;21.20;53.70;;;;;;6233028;28;20929;-53
2021/12/04 08:03:49;;;;;;;;;;;21.40;53.80;;;;;;6231624;28;19932;-54
2021/12/04 08:06:50;;;;;;;;;;;21.40;53.80;;;;;;6233539;28;20045;-55
2021/12/04 08:09:52;;;;;;;;;;;21.50;53.90;;;;;;6223985;28;20060;-48
2021/12/04 08:12:54;;;;;;;;;;;21.30;53.70;;;;;;6205791;28;20001;-55
2021/12/04 08:15:56;;;;;;;;;;;21.50;53.80;;;;;;6235564;28;19935;-55
2021/12/04 08:18:58;;;;;;;;;;;21.50;53.70;;;;;;6223310;28;19929;-53
2021/12/04 08:21:59;;;;;;;;;;;21.30;53.60;;;;;;6234889;28;19929;-55
2021/12/04 08:25:00;;;;;;;;;;;21.30;53.60;;;;;;6219601;28;20604;-53
2021/12/04 08:28:02;;;;;;;;;;;21.70;53.80;;;;;;6236981;28;20015;-54
2021/12/04 08:31:04;;;;;;;;;;;21.40;53.60;;;;;;6237300;28;19930;-55
2021/12/04 08:34:06;;;;;;;;;;;21.30;53.50;;;;;;6234491;28;20824;-55
2021/12/04 08:37:07;;;;;;;;;;;21.40;53.50;;;;;;6232732;28;19959;-55
2021/12/04 08:40:11;;;;;;;;;;;21.20;53.40;;;;;;6197096;28;19936;-55
2021/12/04 08:43:13;;;;;;;;;;;21.20;53.30;;;;;;6229578;28;20039;-52
2021/12/04 08:46:19;;;;;;;;;;;21.30;53.40;;;;;;6241685;28;19935;-51
2021/12/04 08:49:21;;;;;;;;;;;21.10;53.20;;;;;;6237506;28;19936;-56
2021/12/04 08:52:22;;;;;;;;;;;21.20;53.20;;;;;;6235047;28;19928;-56
2021/12/04 08:55:24;;;;;;;;;;;21.50;53.40;;;;;;6235204;28;19928;-50
2021/12/04 08:58:25;;;;;;;;;;;21.40;53.30;;;;;;6240829;28;19928;-55
2021/12/04 09:01:30;;;;;;;;;;;21.40;53.30;;;;;;6241848;28;19968;-55
2021/12/04 09:04:33;;;;;;;;;;;21.60;53.60;;;;;;6219411;28;20051;-55
2021/12/04 09:07:34;;;;;;;;;;;21.30;53.10;;;;;;6217284;28;19928;-55
2021/12/04 09:10:36;;;;;;;;;;;21.30;53.10;;;;;;6225698;28;19928;-55
2021/12/04 09:13:38;;;;;;;;;;;21.30;53.20;;;;;;6231090;28;19920;-53
2021/12/04 09:16:41;;;;;;;;;;;21.60;53.30;;;;;;6234061;28;19928;-53
2021/12/04 09:19:43;;;;;;;;;;;21.50;53.10;;;;;;6236929;28;20667;-54
2021/12/04 09:22:45;;;;;;;;;;;21.10;52.80;;;;;;6230693;28;20487;-55
2021/12/04 09:25:49;;;;;;;;;;;21.40;52.90;;;;;;6236451;28;19920;-55
2021/12/04 09:28:55;;;;;;;;;;;21.50;53.00;;;;;;6225265;28;20117;-54
2021/12/04 10:01:27;;;;;;;;;;;21.10;52.30;;;;;;6229875;28;20048;-53
2021/12/04 10:11:29;;;;;;;;;;;21.40;52.30;;;;;;6233783;28;20454;-53
2021/12/04 10:18:06;;;;;;;;;;;21.50;52.20;;;;;;6234490;28;20102;-55
2021/12/04 10:21:16;;;;;;;;;;;21.40;52.10;;;;;;6234440;28;19935;-55
2021/12/04 10:24:39;;;;;;;;;;;21.40;52.10;;;;;;6236937;28;19928;-55
2021/12/04 10:34:08;;;;;;;;;;;21.60;52.00;;;;;;6212484;28;21311;-52
2021/12/04 10:37:11;;;;;;;;;;;21.50;51.90;;;;;;6216732;28;20604;-48
2021/12/04 10:40:14;;;;;;;;;;;21.60;52.00;;;;;;6207875;28;20035;-53
2021/12/04 10:43:16;;;;;;;;;;;21.50;51.80;;;;;;6228415;28;20015;-55
2021/12/04 10:46:20;;;;;;;;;;;21.50;51.80;;;;;;6229550;28;20104;-48
2021/12/04 10:49:45;;;;;;;;;;;21.60;51.80;;;;;;6223408;28;20804;-50
2021/12/04 10:52:49;;;;;;;;;;;21.50;51.70;;;;;;6219764;28;20729;-51
2021/12/04 10:55:56;;;;;;;;;;;21.70;51.80;;;;;;6208124;28;19929;-55
2021/12/04 10:59:14;;;;;;;;;;;21.50;51.60;;;;;;6223726;28;20038;-54
2021/12/04 11:02:22;;;;;;;;;;;21.60;51.60;;;;;;6231543;28;20843;-55
2021/12/04 11:28:17;;;;;;;;;;;21.80;51.40;;;;;;6192824;28;21534;-52
2021/12/04 11:44:24;;;;;;;;;;;21.70;51.10;;;;;;6203827;28;20129;-52
2021/12/04 11:47:34;;;;;;;;;;;21.70;51.10;;;;;;6219813;28;20055;-51
2021/12/04 11:50:37;;;;;;;;;;;21.70;51.00;;;;;;6217565;28;20042;-50
2021/12/04 11:53:38;;;;;;;;;;;21.60;51.00;;;;;;6220043;28;20026;-51
2021/12/04 11:56:42;;;;;;;;;;;21.70;51.00;;;;;;6221237;28;20283;-48
2021/12/04 11:59:45;;;;;;;;;;;22.00;51.10;;;;;;6218328;28;19935;-51
2021/12/04 12:02:46;;;;;;;;;;;22.00;51.00;;;;;;6221179;28;20200;-51
2021/12/04 12:05:50;;;;;;;;;;;21.90;50.90;;;;;;6216109;28;20050;-52
2021/12/04 12:08:59;;;;;;;;;;;21.80;50.90;;;;;;6216935;28;20040;-52
2021/12/04 12:12:03;;;;;;;;;;;21.70;50.70;;;;;;6214518;28;47692;-52
2021/12/04 12:15:15;;;;;;;;;;;21.80;50.80;;;;;;6220160;28;20673;-50
2021/12/04 12:18:19;;;;;;;;;;;21.70;50.70;;;;;;6205832;28;20103;-49
2021/12/04 12:21:28;;;;;;;;;;;22.20;50.90;;;;;;6180319;28;20270;-51
2021/12/04 12:27:56;;;;;;;;;;;22.00;50.70;;;;;;6227232;28;19972;-52
2021/12/04 12:34:16;;;;;;;;;;;22.10;50.70;;;;;;6214139;28;20614;-49
2021/12/04 12:37:20;;;;;;;;;;;21.80;50.50;;;;;;6199408;28;20453;-49
2021/12/04 12:40:28;;;;;;;;;;;22.10;50.60;;;;;;6222190;28;20891;-50
2021/12/04 12:43:39;;;;;;;;;;;21.90;50.40;;;;;;6217798;28;19929;-50
2021/12/04 12:46:43;;;;;;;;;;;22.00;50.40;;;;;;6197743;28;19963;-51
2021/12/04 12:49:46;;;;;;;;;;;22.00;50.40;;;;;;6157661;28;23354;-49
2021/12/04 12:52:47;;;;;;;;;;;21.80;50.30;;;;;;6219521;28;19955;-50
2021/12/04 12:55:50;;;;;;;;;;;22.20;50.40;;;;;;6218583;28;20068;-50
2021/12/04 12:58:56;;;;;;;;;;;22.00;50.20;;;;;;6202214;28;20574;-49
2021/12/04 13:12:01;;;;;;;;;;;22.10;50.20;;;;;;6220516;28;20357;-52
2021/12/04 13:15:03;;;;;;;;;;;21.80;50.00;;;;;;6205070;28;19924;-51
2021/12/04 13:18:09;;;;;;;;;;;22.00;50.60;;;;;;6193153;28;19928;-53
2021/12/04 13:21:11;;;;;;;;;;;22.20;50.10;;;;;;6220023;28;20306;-49
2021/12/04 13:24:12;;;;;;;;;;;22.10;50.00;;;;;;6222105;28;19975;-50
2021/12/04 13:30:18;;;;;;;;;;;22.20;50.00;;;;;;6212306;28;20434;-54
2021/12/04 13:33:20;;;;;;;;;;;22.20;50.00;;;;;;6214204;28;19929;-50
2021/12/04 13:36:22;;;;;;;;;;;22.20;49.90;;;;;;6219052;28;19928;-51
2021/12/04 13:39:24;;;;;;;;;;;22.30;50.00;;;;;;6219497;28;19975;-52
2021/12/04 13:42:29;;;;;;;;;;;22.10;49.80;;;;;;6216009;28;19935;-49
2021/12/04 13:45:31;;;;;;;;;;;22.00;49.70;;;;;;6221950;28;19924;-49
2021/12/04 13:48:33;;;;;;;;;;;21.90;49.60;;;;;;6218002;28;20201;-51
2021/12/04 13:51:35;;;;;;;;;;;21.90;49.60;;;;;;6196132;28;20074;-50
2021/12/04 13:54:38;;;;;;;;;;;22.30;49.80;;;;;;6221960;28;20088;-48
2021/12/04 13:57:40;;;;;;;;;;;21.90;49.50;;;;;;6207812;28;20068;-51
2021/12/04 14:00:44;;;;;;;;;;;22.10;49.60;;;;;;6224351;28;20245;-55
2021/12/04 14:03:47;;;;;;;;;;;22.10;49.60;;;;;;6222193;28;20054;-54
2021/12/04 14:06:50;;;;;;;;;;;21.90;49.50;;;;;;6229697;28;20364;-51
2021/12/04 14:09:51;;;;;;;;;;;22.00;49.50;;;;;;6213855;28;20303;-50
2021/12/04 14:12:54;;;;;;;;;;;22.20;49.60;;;;;;6226489;28;19951;-48
2021/12/04 14:15:56;;;;;;;;;;;22.00;49.50;;;;;;6223308;28;20599;-53
2021/12/04 14:19:09;;;;;;;;;;;21.90;49.40;;;;;;6221317;28;20305;-48
2021/12/04 14:22:12;;;;;;;;;;;22.10;49.40;;;;;;6222521;28;20042;-48
2021/12/04 14:25:14;;;;;;;;;;;22.30;49.50;;;;;;6217870;28;20853;-51
2021/12/04 14:28:17;;;;;;;;;;;22.10;49.40;;;;;;6214750;28;34614;-53
2021/12/04 14:31:22;;;;;;;;;;;22.20;49.40;;;;;;6217162;28;19928;-50
2021/12/04 14:34:25;;;;;;;;;;;22.20;49.40;;;;;;6224194;28;21005;-49
2021/12/04 14:37:27;;;;;;;;;;;22.20;49.30;;;;;;6218361;28;19930;-52
2021/12/04 14:40:31;;;;;;;;;;;21.90;49.20;;;;;;6201578;28;20307;-49
2021/12/04 14:43:35;;;;;;;;;;;22.10;49.20;;;;;;6224805;28;19964;-52
2021/12/04 14:46:37;;;;;;;;;;;22.10;49.20;;;;;;6207418;28;20037;-49
2021/12/04 14:49:41;;;;;;;;;;;22.20;49.20;;;;;;6224722;28;20051;-49
2021/12/04 14:52:47;;;;;;;;;;;22.00;49.10;;;;;;6199803;28;20282;-47
2021/12/04 14:55:50;;;;;;;;;;;22.20;49.20;;;;;;6196909;28;20971;-48
2021/12/04 14:58:51;;;;;;;;;;;22.20;49.20;;;;;;6215672;28;19935;-48
2021/12/04 15:01:53;;;;;;;;;;;22.30;49.20;;;;;;6225439;28;19932;-50
2021/12/04 15:04:55;;;;;;;;;;;22.10;49.10;;;;;;6230070;28;20724;-50
2021/12/04 15:07:59;;;;;;;;;;;21.80;48.90;;;;;;6203133;28;19998;-49
2021/12/04 15:11:18;;;;;;;;;;;22.10;49.00;;;;;;6218611;28;20497;-49
2021/12/04 15:14:24;;;;;;;;;;;22.00;49.00;;;;;;6206188;28;20555;-50
2021/12/04 15:17:26;;;;;;;;;;;22.00;49.00;;;;;;6226970;28;20171;-51
2021/12/04 15:20:31;;;;;;;;;;;22.20;49.00;;;;;;6224090;28;20415;-53
2021/12/04 15:23:55;;;;;;;;;;;22.00;48.90;;;;;;6226511;28;19928;-49
2021/12/04 15:26:59;;;;;;;;;;;22.00;48.90;;;;;;6231072;28;20094;-48
2021/12/04 15:30:04;;;;;;;;;;;22.20;49.00;;;;;;6228375;28;19964;-48
2021/12/04 15:33:06;;;;;;;;;;;22.00;48.90;;;;;;6212681;28;20137;-51
2021/12/04 15:36:11;;;;;;;;;;;22.10;48.90;;;;;;6202333;28;20633;-47
2021/12/04 15:39:18;;;;;;;;;;;22.10;48.90;;;;;;6218926;28;19928;-51
2021/12/04 15:42:28;;;;;;;;;;;21.90;48.80;;;;;;6225475;28;19961;-50
2021/12/04 15:45:39;;;;;;;;;;;22.20;48.90;;;;;;6226414;28;20382;-49
2021/12/04 15:55:27;;;;;;;;;;;22.10;48.70;;;;;;6201087;28;20184;-51
2021/12/04 15:58:30;;;;;;;;;;;22.10;48.70;;;;;;6205453;28;20038;-49
2021/12/04 16:01:31;;;;;;;;;;;22.10;48.80;;;;;;6216107;28;20469;-47
2021/12/04 16:04:34;;;;;;;;;;;21.90;48.60;;;;;;6218601;28;20029;-51
2021/12/04 16:07:36;;;;;;;;;;;22.30;48.80;;;;;;6219289;28;20733;-46
2021/12/04 16:10:38;;;;;;;;;;;22.20;48.70;;;;;;6218679;28;20354;-46
2021/12/04 16:13:48;;;;;;;;;;;22.00;48.60;;;;;;6219714;28;19978;-48
2021/12/04 16:16:50;;;;;;;;;;;21.90;48.50;;;;;;6202042;28;20170;-48
2021/12/04 16:20:02;;;;;;;;;;;22.20;48.70;;;;;;6224211;28;20377;-49
2021/12/04 16:23:04;;;;;;;;;;;22.00;48.50;;;;;;6224816;28;20584;-47
2021/12/04 16:26:10;;;;;;;;;;;22.00;48.50;;;;;;6223656;28;19991;-49
2021/12/04 16:29:12;;;;;;;;;;;22.20;48.60;;;;;;6220636;28;20055;-51
2021/12/04 16:32:31;;;;;;;;;;;22.20;48.60;;;;;;6228461;28;19990;-49
2021/12/04 16:35:45;;;;;;;;;;;22.20;48.60;;;;;;6209584;28;20139;-47
2021/12/04 16:38:47;;;;;;;;;;;22.20;48.50;;;;;;6232525;28;19929;-47
2021/12/04 16:41:53;;;;;;;;;;;22.00;48.40;;;;;;6203561;28;20195;-49
2021/12/04 16:44:55;;;;;;;;;;;22.00;48.40;;;;;;6226810;28;19970;-47
2021/12/04 16:47:59;;;;;;;;;;;22.20;48.50;;;;;;6224219;28;19932;-47
2021/12/04 16:57:50;;;;;;;;;;;21.90;48.30;;;;;;6190917;28;20312;-51
2021/12/04 17:00:52;;;;;;;;;;;22.00;48.30;;;;;;6222126;28;20276;-46
2021/12/04 17:03:53;;;;;;;;;;;21.90;48.20;;;;;;6226961;28;20493;-50
2021/12/04 17:06:58;;;;;;;;;;;21.80;48.20;;;;;;6230201;28;20027;-48
2021/12/04 17:09:59;;;;;;;;;;;22.00;48.20;;;;;;6209950;28;20328;-48
2021/12/04 17:13:00;;;;;;;;;;;22.10;48.30;;;;;;6226145;28;20059;-46
2021/12/04 17:16:02;;;;;;;;;;;21.90;48.20;;;;;;6222570;28;20279;-50
2021/12/04 17:19:08;;;;;;;;;;;22.10;48.20;;;;;;6224150;28;20053;-49
2021/12/04 17:22:10;;;;;;;;;;;21.90;48.20;;;;;;6230100;28;20108;-46
2021/12/04 17:25:11;;;;;;;;;;;22.30;48.30;;;;;;6192728;28;20595;-51
2021/12/04 17:28:13;;;;;;;;;;;21.80;48.10;;;;;;6212843;28;20081;-49
2021/12/04 17:31:16;;;;;;;;;;;22.00;48.20;;;;;;6216866;28;19966;-50
2021/12/04 17:34:18;;;;;;;;;;;21.90;48.10;;;;;;6226805;28;20007;-46
2021/12/04 17:37:23;;;;;;;;;;;21.70;48.00;;;;;;6224248;28;20123;-49
2021/12/04 17:40:24;;;;;;;;;;;21.90;48.20;;;;;;6223802;28;19945;-47
2021/12/04 17:43:26;;;;;;;;;;;21.60;48.00;;;;;;6226347;28;19981;-49
2021/12/04 17:46:28;;;;;;;;;;;21.70;48.10;;;;;;6227507;28;19928;-46
2021/12/04 17:49:29;;;;;;;;;;;22.00;48.30;;;;;;6223073;28;20190;-47
2021/12/04 17:52:31;;;;;;;;;;;21.70;48.20;;;;;;6192238;28;19928;-48
2021/12/04 17:55:33;;;;;;;;;;;22.00;48.30;;;;;;6209047;28;19950;-48
2021/12/04 17:58:34;;;;;;;;;;;21.60;48.10;;;;;;6218032;28;20077;-50
2021/12/04 18:01:38;;;;;;;;;;;21.70;48.30;;;;;;6202966;28;20370;-48
2021/12/04 18:04:42;;;;;;;;;;;21.60;48.10;;;;;;6222687;28;19929;-48
2021/12/04 18:07:44;;;;;;;;;;;21.60;48.20;;;;;;6227946;28;20486;-50
2021/12/04 18:10:46;;;;;;;;;;;21.70;48.30;;;;;;6228204;28;20051;-50
2021/12/04 18:13:49;;;;;;;;;;;21.90;48.40;;;;;;6230856;28;19925;-52
2021/12/04 18:16:52;;;;;;;;;;;21.60;48.20;;;;;;6225895;28;20121;-48
2021/12/04 18:19:54;;;;;;;;;;;21.70;48.30;;;;;;6226647;28;19935;-50
2021/12/04 18:22:56;;;;;;;;;;;21.60;48.20;;;;;;6227540;28;19963;-50
2021/12/04 18:25:58;;;;;;;;;;;21.60;48.20;;;;;;6209859;28;20017;-50
2021/12/04 18:29:00;;;;;;;;;;;21.50;48.10;;;;;;6225122;28;20242;-51
2021/12/04 18:32:02;;;;;;;;;;;21.50;48.10;;;;;;6221633;28;20175;-48
2021/12/04 18:35:05;;;;;;;;;;;21.40;48.00;;;;;;6214868;28;19932;-51
2021/12/04 18:38:08;;;;;;;;;;;21.60;48.20;;;;;;6225787;28;20542;-48
2021/12/04 18:41:10;;;;;;;;;;;21.80;48.20;;;;;;6206484;28;20413;-49
2021/12/04 18:44:13;;;;;;;;;;;21.50;48.10;;;;;;6224991;28;20744;-50
2021/12/04 18:47:16;;;;;;;;;;;21.40;48.00;;;;;;6224341;28;20351;-53
2021/12/04 18:50:22;;;;;;;;;;;21.10;47.90;;;;;;6220242;28;20294;-49
2021/12/04 18:53:23;;;;;;;;;;;21.20;47.90;;;;;;6224724;28;20047;-48
2021/12/04 18:56:39;;;;;;;;;;;21.60;48.10;;;;;;6223302;28;19998;-49
2021/12/04 18:59:40;;;;;;;;;;;21.30;48.00;;;;;;6220894;28;20862;-49
2021/12/04 19:02:44;;;;;;;;;;;21.70;48.20;;;;;;6220693;28;19940;-49
2021/12/04 19:05:46;;;;;;;;;;;21.70;48.20;;;;;;6209173;28;20383;-51
2021/12/04 19:08:49;;;;;;;;;;;21.80;48.20;;;;;;6200674;28;20015;-50
2021/12/04 19:11:53;;;;;;;;;;;21.50;48.00;;;;;;6228433;28;20286;-50
2021/12/04 19:14:54;;;;;;;;;;;21.30;48.00;;;;;;6213600;28;19924;-48
2021/12/04 19:17:55;;;;;;;;;;;21.40;48.00;;;;;;6231476;28;19929;-52
2021/12/04 19:20:57;;;;;;;;;;;21.40;48.00;;;;;;6218935;28;19960;-51
2021/12/04 19:23:59;;;;;;;;;;;21.00;47.80;;;;;;6218733;28;20557;-52
2021/12/04 19:27:03;;;;;;;;;;;21.70;48.10;;;;;;6228222;28;20373;-48
2021/12/04 19:30:08;;;;;;;;;;;21.20;47.80;;;;;;6223436;28;20854;-52
2021/12/04 19:33:20;;;;;;;;;;;21.20;48.40;;;;;;6225514;28;19932;-53
2021/12/04 19:52:50;;;;;;;;;;;21.20;47.80;;;;;;6225735;28;19924;-50
2021/12/04 19:55:54;;;;;;;;;;;21.30;47.80;;;;;;6223585;28;20133;-54
2021/12/04 19:58:57;;;;;;;;;;;21.40;47.80;;;;;;6220205;28;19928;-48
2021/12/04 20:02:11;;;;;;;;;;;21.10;47.60;;;;;;6226336;28;19924;-49
2021/12/04 20:05:30;;;;;;;;;;;21.10;47.70;;;;;;6222565;28;20397;-51
2021/12/04 20:08:55;;;;;;;;;;;21.10;47.60;;;;;;6225269;28;20039;-50
2021/12/04 20:15:18;;;;;;;;;;;21.20;47.70;;;;;;6227554;28;20487;-48
2021/12/04 20:18:19;;;;;;;;;;;21.40;47.80;;;;;;6222724;28;20433;-51
2021/12/04 20:21:23;;;;;;;;;;;21.00;47.70;;;;;;6225569;28;19929;-49
2021/12/04 20:24:29;;;;;;;;;;;21.30;47.80;;;;;;6226330;28;19939;-52
2021/12/04 20:27:36;;;;;;;;;;;21.00;47.60;;;;;;6228779;28;20171;-48
2021/12/04 20:30:48;;;;;;;;;;;21.20;47.70;;;;;;6224366;28;20031;-48
2021/12/04 20:33:55;;;;;;;;;;;21.20;47.70;;;;;;6226521;28;19928;-51
2021/12/04 21:39:05;;;;;;;;;;;21.00;47.40;;;;;;6245740;28;19970;-55
2021/12/04 21:51:48;;;;;;;;;;;21.00;47.30;;;;;;6241528;28;20103;-54
2021/12/04 21:54:51;;;;;;;;;;;20.60;47.10;;;;;;6242379;28;19924;-54
2021/12/04 21:58:16;;;;;;;;;;;20.80;47.30;;;;;;6227489;28;20131;-55
2021/12/04 22:11:10;;;;;;;;;;;20.80;47.10;;;;;;6241780;28;20608;-54